Destrehan, Louisiana
Current Conditions -  °F | °C
As of 3:53 PM on Wednesday 28 Jan 2015 (Local Time) from KMSY Reporting Station
Few Clouds Few Clouds  
Wind Chill: 19°   Ceiling: Unl
Heat Index: 19°   Visibility: 10mi
Dew Point:   Wind: 5mph
Humidity: 33%   Direction: 130°SE
Pressure: 30.22"   Gusts: NA
Location:  29.95°N, 90.39°W
Report Text: KMSY 282153Z 13004KT 10SM FEW010 FEW250 19/03 A3022 RMK AO2 SLP237 FU FEW010 T01940028
Loading
Personal Weather Stations






























Interactive Weather Map New forecast layout! Learn more

10-Day Weather Forecast

Advertisements
Track Severe Weather on mobile